Time;durP1;ratioP1;P1;durP2;ratioP2;P2;SDS_P1;SDS_P2;PMS_P1;PMS_P2;Temp;Humidity;BMP_temperature;BMP_pressure;BME280_temperature;BME280_humidity;BME280_pressure;Samples;Min_cycle;Max_cycle;Signal;HPM_P1;HPM_P2
2023/07/10 00:00:27;;;;;;;;;;;23.70;97.70;;;;;;5042838;28;19927;-71
2023/07/10 00:02:53;;;;;;;;;;;23.60;97.90;;;;;;5043565;28;20020;-72
2023/07/10 00:05:21;;;;;;;;;;;23.60;98.10;;;;;;5043907;28;19927;-71
2023/07/10 00:07:48;;;;;;;;;;;23.50;98.40;;;;;;5043545;28;19921;-72
2023/07/10 00:10:15;;;;;;;;;;;23.40;98.70;;;;;;5043228;28;19921;-72
2023/07/10 00:12:43;;;;;;;;;;;23.40;98.90;;;;;;5043593;28;19983;-71
2023/07/10 00:15:15;;;;;;;;;;;23.40;99.10;;;;;;5043377;28;19984;-72
2023/07/10 00:17:45;;;;;;;;;;;23.30;99.30;;;;;;5043292;28;19992;-72
2023/07/10 00:20:16;;;;;;;;;;;23.30;99.40;;;;;;5042506;28;19961;-72
2023/07/10 00:22:42;;;;;;;;;;;23.20;99.50;;;;;;5043206;28;19952;-72
2023/07/10 00:25:09;;;;;;;;;;;23.20;99.60;;;;;;5043571;28;19984;-71
2023/07/10 00:27:36;;;;;;;;;;;23.10;99.80;;;;;;5043380;28;20171;-72
2023/07/10 00:30:03;;;;;;;;;;;23.10;99.90;;;;;;5042637;28;20319;-72
2023/07/10 00:32:31;;;;;;;;;;;23.00;99.90;;;;;;5043374;28;20092;-72
2023/07/10 00:34:58;;;;;;;;;;;22.90;99.90;;;;;;5043318;28;19921;-72
2023/07/10 00:37:24;;;;;;;;;;;23.00;99.90;;;;;;5043322;28;19997;-72
2023/07/10 00:39:51;;;;;;;;;;;22.90;99.90;;;;;;5043000;28;20272;-72
2023/07/10 00:42:18;;;;;;;;;;;22.90;99.90;;;;;;5042780;28;19921;-72
2023/07/10 00:44:47;;;;;;;;;;;22.80;99.90;;;;;;5043222;28;19988;-72
2023/07/10 00:47:15;;;;;;;;;;;22.80;99.90;;;;;;5043335;28;19921;-72
2023/07/10 00:49:47;;;;;;;;;;;22.80;99.90;;;;;;5040838;28;20004;-72
2023/07/10 00:52:15;;;;;;;;;;;22.80;99.90;;;;;;5042569;28;19992;-72
2023/07/10 00:54:43;;;;;;;;;;;22.70;99.90;;;;;;5043130;28;19921;-72
2023/07/10 00:57:13;;;;;;;;;;;22.70;99.90;;;;;;5043398;28;19921;-72
2023/07/10 00:59:41;;;;;;;;;;;22.70;99.90;;;;;;5042872;28;19928;-72
2023/07/10 01:02:19;;;;;;;;;;;22.70;99.90;;;;;;5042352;28;19984;-71
2023/07/10 01:04:48;;;;;;;;;;;22.60;99.90;;;;;;5043008;28;19921;-72
2023/07/10 01:07:15;;;;;;;;;;;22.60;99.90;;;;;;5043201;28;19922;-72
2023/07/10 01:09:44;;;;;;;;;;;22.50;99.90;;;;;;5043135;28;19928;-72
2023/07/10 01:12:10;;;;;;;;;;;22.50;99.90;;;;;;5042323;28;19921;-72
2023/07/10 01:14:37;;;;;;;;;;;22.40;99.90;;;;;;5042820;28;19991;-72
2023/07/10 01:17:04;;;;;;;;;;;22.40;99.90;;;;;;5042767;28;20212;-72
2023/07/10 01:19:31;;;;;;;;;;;22.40;99.90;;;;;;5043214;28;19921;-72
2023/07/10 01:21:59;;;;;;;;;;;22.30;99.90;;;;;;5041914;28;19921;-72
2023/07/10 01:24:26;;;;;;;;;;;22.30;99.90;;;;;;5043052;28;20032;-72
2023/07/10 01:26:54;;;;;;;;;;;22.30;99.90;;;;;;5042257;28;19928;-73
2023/07/10 01:29:23;;;;;;;;;;;22.30;99.90;;;;;;5043011;28;20120;-71
2023/07/10 01:31:51;;;;;;;;;;;22.20;99.90;;;;;;5043700;28;20051;-71
2023/07/10 01:34:19;;;;;;;;;;;22.20;99.90;;;;;;5046652;28;19929;-72
2023/07/10 01:36:46;;;;;;;;;;;22.20;99.90;;;;;;5046601;28;19935;-72
2023/07/10 01:39:28;;;;;;;;;;;22.10;99.90;;;;;;5046694;28;19928;-71
2023/07/10 01:41:55;;;;;;;;;;;22.10;99.90;;;;;;5045901;28;19984;-72
2023/07/10 01:44:23;;;;;;;;;;;22.10;99.90;;;;;;5046204;28;19994;-71
2023/07/10 01:46:50;;;;;;;;;;;22.10;99.90;;;;;;5046156;28;19943;-73
2023/07/10 01:49:17;;;;;;;;;;;22.10;99.90;;;;;;5043417;28;20212;-72
2023/07/10 01:51:44;;;;;;;;;;;22.00;99.90;;;;;;5045609;28;19927;-73
2023/07/10 01:54:12;;;;;;;;;;;22.00;99.90;;;;;;5045963;28;20256;-72
2023/07/10 01:56:40;;;;;;;;;;;22.00;99.90;;;;;;5046105;28;19927;-71
2023/07/10 01:59:06;;;;;;;;;;;21.90;99.90;;;;;;5046175;28;19984;-72
2023/07/10 02:01:33;;;;;;;;;;;21.80;99.90;;;;;;5045011;28;19928;-72
2023/07/10 02:04:00;;;;;;;;;;;21.80;99.90;;;;;;5046056;28;19921;-72
2023/07/10 02:06:26;;;;;;;;;;;21.70;99.90;;;;;;5045899;28;19980;-72
2023/07/10 02:08:53;;;;;;;;;;;21.70;99.90;;;;;;5045854;28;19921;-71
2023/07/10 02:11:20;;;;;;;;;;;21.60;99.90;;;;;;5045024;28;20283;-72
2023/07/10 02:13:48;;;;;;;;;;;21.50;99.90;;;;;;5045912;28;19961;-72
2023/07/10 02:16:15;;;;;;;;;;;21.50;99.90;;;;;;5045723;28;19921;-72
2023/07/10 02:18:42;;;;;;;;;;;21.50;99.90;;;;;;5045728;28;19927;-72
2023/07/10 02:21:08;;;;;;;;;;;21.40;99.90;;;;;;5045074;28;19921;-72
2023/07/10 02:23:35;;;;;;;;;;;21.40;99.90;;;;;;5045194;28;19980;-71
2023/07/10 02:26:02;;;;;;;;;;;21.30;99.90;;;;;;5045644;28;19921;-71
2023/07/10 02:28:29;;;;;;;;;;;21.30;99.90;;;;;;5045516;28;19927;-72
2023/07/10 02:30:57;;;;;;;;;;;21.20;99.90;;;;;;5044699;28;19984;-72
2023/07/10 02:33:23;;;;;;;;;;;21.20;99.90;;;;;;5045537;28;19921;-72
2023/07/10 02:35:50;;;;;;;;;;;21.20;99.90;;;;;;5045418;28;19984;-72
2023/07/10 02:38:17;;;;;;;;;;;21.20;99.90;;;;;;5045605;28;20164;-71
2023/07/10 02:40:43;;;;;;;;;;;21.20;99.90;;;;;;5044587;28;19988;-72
2023/07/10 02:43:10;;;;;;;;;;;21.20;99.90;;;;;;5045047;28;20120;-72
2023/07/10 02:45:37;;;;;;;;;;;21.10;99.90;;;;;;5045118;28;19979;-72
2023/07/10 02:48:05;;;;;;;;;;;21.10;99.90;;;;;;5044818;28;19928;-72
2023/07/10 02:50:32;;;;;;;;;;;21.00;99.90;;;;;;5042078;28;19959;-72
2023/07/10 02:52:59;;;;;;;;;;;21.10;99.90;;;;;;5042398;28;19980;-71
2023/07/10 02:55:25;;;;;;;;;;;21.00;99.90;;;;;;5044875;28;19984;-72
2023/07/10 02:57:52;;;;;;;;;;;21.00;99.90;;;;;;5044941;28;20165;-71
2023/07/10 03:00:19;;;;;;;;;;;21.10;99.90;;;;;;5043931;28;20216;-71
2023/07/10 03:02:45;;;;;;;;;;;21.10;99.90;;;;;;5044686;28;19984;-71
2023/07/10 03:05:13;;;;;;;;;;;21.10;99.90;;;;;;5044285;28;20076;-72
2023/07/10 03:07:40;;;;;;;;;;;21.10;99.90;;;;;;5044730;28;19928;-72
2023/07/10 03:10:07;;;;;;;;;;;21.00;99.90;;;;;;5043677;28;20272;-71
2023/07/10 03:12:34;;;;;;;;;;;21.00;99.90;;;;;;5044631;28;19921;-72
2023/07/10 03:15:00;;;;;;;;;;;20.90;99.90;;;;;;5044404;28;19992;-73
2023/07/10 03:17:27;;;;;;;;;;;20.80;99.90;;;;;;5044548;28;20017;-71
2023/07/10 03:19:54;;;;;;;;;;;20.80;99.90;;;;;;5043752;28;19921;-71
2023/07/10 03:22:22;;;;;;;;;;;20.80;99.90;;;;;;5044041;28;19921;-72
2023/07/10 03:24:48;;;;;;;;;;;20.90;99.90;;;;;;5044200;28;19943;-71
2023/07/10 03:27:15;;;;;;;;;;;20.90;99.90;;;;;;5043919;28;19997;-71
2023/07/10 03:29:41;;;;;;;;;;;20.90;99.90;;;;;;5044645;28;20021;-71
2023/07/10 03:32:08;;;;;;;;;;;20.90;99.90;;;;;;5043287;28;20161;-72
2023/07/10 03:34:35;;;;;;;;;;;21.00;99.90;;;;;;5044310;28;19921;-72
2023/07/10 03:37:02;;;;;;;;;;;21.00;99.90;;;;;;5044175;28;19921;-72
2023/07/10 03:39:30;;;;;;;;;;;20.90;99.90;;;;;;5044264;28;19994;-72
2023/07/10 03:41:57;;;;;;;;;;;21.00;99.90;;;;;;5043594;28;19943;-71
2023/07/10 03:44:23;;;;;;;;;;;21.00;99.90;;;;;;5044150;28;19940;-71
2023/07/10 03:46:50;;;;;;;;;;;21.00;99.90;;;;;;5043365;28;19991;-71
2023/07/10 03:49:16;;;;;;;;;;;20.90;99.90;;;;;;5043189;28;19921;-72
2023/07/10 03:51:43;;;;;;;;;;;21.00;99.90;;;;;;5042659;28;19927;-71
2023/07/10 03:54:11;;;;;;;;;;;21.00;99.90;;;;;;5042749;28;20165;-71
2023/07/10 03:56:39;;;;;;;;;;;21.00;99.90;;;;;;5042764;28;19928;-72
2023/07/10 03:59:08;;;;;;;;;;;21.00;99.90;;;;;;5040502;28;19921;-72
2023/07/10 04:01:35;;;;;;;;;;;20.90;99.90;;;;;;5042694;28;19952;-72
2023/07/10 04:04:02;;;;;;;;;;;21.00;99.90;;;;;;5043821;28;20009;-72
2023/07/10 04:06:29;;;;;;;;;;;21.00;99.90;;;;;;5043667;28;19971;-71
2023/07/10 04:08:58;;;;;;;;;;;20.90;99.90;;;;;;5043677;28;20094;-72
2023/07/10 04:11:25;;;;;;;;;;;20.90;99.90;;;;;;5042740;28;19928;-71
2023/07/10 04:13:53;;;;;;;;;;;20.80;99.90;;;;;;5042995;28;19984;-72
2023/07/10 04:16:20;;;;;;;;;;;20.80;99.90;;;;;;5043566;28;19927;-72
2023/07/10 04:18:48;;;;;;;;;;;20.80;99.90;;;;;;5043608;28;19921;-72
2023/07/10 04:21:15;;;;;;;;;;;20.80;99.90;;;;;;5042764;28;19921;-71
2023/07/10 04:23:42;;;;;;;;;;;20.70;99.90;;;;;;5043284;28;19931;-71
2023/07/10 04:26:13;;;;;;;;;;;20.60;99.90;;;;;;5043163;28;19988;-72
2023/07/10 04:28:39;;;;;;;;;;;20.60;99.90;;;;;;5042992;28;20106;-72
2023/07/10 04:31:07;;;;;;;;;;;20.70;99.90;;;;;;5041283;28;19928;-72
2023/07/10 04:33:34;;;;;;;;;;;20.70;99.90;;;;;;5023769;28;19925;-71
2023/07/10 04:36:02;;;;;;;;;;;20.70;99.90;;;;;;5023517;28;20327;-72
2023/07/10 04:38:29;;;;;;;;;;;20.80;99.90;;;;;;5023566;28;19921;-71
2023/07/10 04:40:56;;;;;;;;;;;20.80;99.90;;;;;;5025485;28;19928;-70
2023/07/10 04:43:24;;;;;;;;;;;21.00;99.90;;;;;;5036843;28;19927;-70
2023/07/10 04:45:53;;;;;;;;;;;21.10;99.90;;;;;;5028567;28;20209;-70
2023/07/10 04:48:27;;;;;;;;;;;21.20;99.90;;;;;;5040134;28;20112;-68
2023/07/10 04:50:54;;;;;;;;;;;21.30;99.90;;;;;;5042588;28;20168;-69
2023/07/10 04:53:21;;;;;;;;;;;21.40;99.90;;;;;;5042752;28;19921;-69
2023/07/10 04:55:48;;;;;;;;;;;21.50;99.90;;;;;;5042904;28;19989;-69
2023/07/10 04:58:15;;;;;;;;;;;21.50;99.90;;;;;;5037850;28;19921;-69
2023/07/10 05:00:43;;;;;;;;;;;21.50;99.90;;;;;;5042081;28;19984;-68
2023/07/10 05:03:09;;;;;;;;;;;21.50;99.90;;;;;;5042997;28;19921;-69
2023/07/10 05:05:39;;;;;;;;;;;21.50;99.90;;;;;;5040505;28;19989;-69
2023/07/10 05:08:06;;;;;;;;;;;21.60;99.90;;;;;;5046412;28;19928;-68
2023/07/10 05:10:33;;;;;;;;;;;21.60;99.90;;;;;;5045871;28;19928;-69
2023/07/10 05:12:59;;;;;;;;;;;21.70;99.90;;;;;;5046974;28;19921;-69
2023/07/10 05:15:26;;;;;;;;;;;21.70;99.90;;;;;;5047097;28;19927;-69
2023/07/10 05:17:53;;;;;;;;;;;21.80;99.90;;;;;;5046665;28;19928;-69
2023/07/10 05:20:19;;;;;;;;;;;21.90;99.90;;;;;;5045558;28;19997;-68
2023/07/10 05:22:47;;;;;;;;;;;21.90;99.90;;;;;;5046500;28;20253;-69
2023/07/10 05:25:14;;;;;;;;;;;22.10;99.90;;;;;;5046251;28;19921;-69
2023/07/10 05:27:40;;;;;;;;;;;22.20;99.90;;;;;;5046262;28;19988;-72
2023/07/10 05:30:08;;;;;;;;;;;22.30;99.90;;;;;;5042715;28;20001;-71
2023/07/10 05:32:34;;;;;;;;;;;22.40;99.90;;;;;;5046617;28;19992;-70
2023/07/10 05:35:01;;;;;;;;;;;22.50;99.90;;;;;;5046190;28;19980;-70
2023/07/10 05:37:27;;;;;;;;;;;22.60;99.90;;;;;;5046086;28;19988;-73
2023/07/10 05:39:56;;;;;;;;;;;22.80;99.90;;;;;;5046011;28;20289;-73
2023/07/10 05:42:22;;;;;;;;;;;22.90;99.90;;;;;;5045702;28;20394;-72
2023/07/10 05:44:49;;;;;;;;;;;22.90;99.90;;;;;;5046134;28;20027;-72
2023/07/10 05:47:16;;;;;;;;;;;22.90;99.90;;;;;;5043777;28;19980;-72
2023/07/10 05:49:42;;;;;;;;;;;23.00;99.90;;;;;;5046172;28;19925;-73
2023/07/10 05:52:09;;;;;;;;;;;23.10;99.90;;;;;;5045508;28;20301;-72
2023/07/10 05:54:36;;;;;;;;;;;23.10;99.90;;;;;;5045791;28;20227;-73
2023/07/10 05:57:04;;;;;;;;;;;23.20;99.90;;;;;;5045546;28;19979;-73
2023/07/10 05:59:30;;;;;;;;;;;23.20;99.90;;;;;;5045837;28;20178;-73
2023/07/10 06:01:57;;;;;;;;;;;23.30;99.90;;;;;;5045187;28;19993;-71
2023/07/10 06:04:24;;;;;;;;;;;23.40;99.90;;;;;;5045992;28;19925;-72
2023/07/10 06:06:51;;;;;;;;;;;23.40;99.90;;;;;;5045643;28;19921;-73
2023/07/10 06:09:17;;;;;;;;;;;23.50;99.90;;;;;;5045968;28;19988;-72
2023/07/10 06:11:44;;;;;;;;;;;23.60;99.90;;;;;;5045255;28;20000;-72
2023/07/10 06:14:13;;;;;;;;;;;23.70;99.90;;;;;;5046022;28;19996;-73
2023/07/10 06:16:40;;;;;;;;;;;23.80;99.90;;;;;;5044149;28;20255;-69
2023/07/10 06:19:07;;;;;;;;;;;23.80;99.90;;;;;;5044373;28;19980;-70
2023/07/10 06:21:33;;;;;;;;;;;23.90;99.90;;;;;;5044969;28;19985;-70
2023/07/10 06:24:00;;;;;;;;;;;24.00;99.90;;;;;;5045139;28;19984;-70
2023/07/10 06:26:27;;;;;;;;;;;24.00;99.90;;;;;;5045025;28;19963;-71
2023/07/10 06:28:53;;;;;;;;;;;24.00;99.90;;;;;;5045395;28;19984;-68
2023/07/10 06:31:21;;;;;;;;;;;24.10;99.90;;;;;;5044996;28;19967;-72
2023/07/10 06:33:48;;;;;;;;;;;24.10;99.90;;;;;;5045862;28;20128;-69
2023/07/10 06:36:14;;;;;;;;;;;24.20;99.90;;;;;;5045002;28;19927;-68
2023/07/10 06:38:41;;;;;;;;;;;24.20;99.90;;;;;;5044318;28;20180;-68
2023/07/10 06:41:10;;;;;;;;;;;24.30;99.90;;;;;;5044013;28;19929;-68
2023/07/10 06:43:37;;;;;;;;;;;24.30;99.90;;;;;;5044209;28;19956;-67
2023/07/10 06:46:03;;;;;;;;;;;24.40;99.90;;;;;;5044909;28;19944;-68
2023/07/10 06:48:32;;;;;;;;;;;24.40;99.90;;;;;;5045293;28;20172;-68
2023/07/10 06:51:00;;;;;;;;;;;24.50;99.90;;;;;;5044502;28;19928;-67
2023/07/10 06:53:26;;;;;;;;;;;24.60;99.90;;;;;;5044736;28;19921;-68
2023/07/10 06:55:54;;;;;;;;;;;24.70;99.90;;;;;;5044952;28;20111;-68
2023/07/10 06:58:21;;;;;;;;;;;24.80;99.90;;;;;;5045178;28;19949;-69
2023/07/10 07:00:47;;;;;;;;;;;24.90;99.90;;;;;;5044395;28;19953;-69
2023/07/10 07:03:14;;;;;;;;;;;25.10;99.90;;;;;;5044575;28;19927;-68
2023/07/10 07:05:42;;;;;;;;;;;25.20;99.90;;;;;;5044522;28;20309;-68
2023/07/10 07:08:09;;;;;;;;;;;25.20;99.90;;;;;;5044742;28;19999;-68
2023/07/10 07:10:40;;;;;;;;;;;25.20;99.90;;;;;;5039682;28;19980;-68
2023/07/10 07:13:06;;;;;;;;;;;25.30;99.90;;;;;;5044460;28;20221;-68
2023/07/10 07:15:33;;;;;;;;;;;25.40;99.90;;;;;;5044433;28;19960;-68
2023/07/10 07:18:00;;;;;;;;;;;25.40;99.90;;;;;;5042014;28;19959;-68
2023/07/10 07:20:26;;;;;;;;;;;25.50;99.90;;;;;;5044181;28;19992;-68
2023/07/10 07:22:54;;;;;;;;;;;25.60;99.90;;;;;;5044037;28;19921;-68
2023/07/10 07:25:21;;;;;;;;;;;25.70;99.90;;;;;;5044372;28;19988;-68
2023/07/10 07:27:48;;;;;;;;;;;25.80;99.90;;;;;;5044221;28;19921;-68
2023/07/10 07:30:14;;;;;;;;;;;25.90;99.90;;;;;;5042911;28;19988;-69
2023/07/10 07:32:41;;;;;;;;;;;26.00;99.90;;;;;;5044415;28;20280;-68
2023/07/10 07:35:08;;;;;;;;;;;26.10;99.90;;;;;;5044013;28;20263;-68
2023/07/10 07:37:34;;;;;;;;;;;26.20;99.90;;;;;;5043990;28;20288;-69
2023/07/10 07:40:06;;;;;;;;;;;26.30;99.90;;;;;;5043556;28;19921;-70
2023/07/10 07:42:33;;;;;;;;;;;26.40;99.90;;;;;;5044050;28;19928;-68
2023/07/10 07:44:59;;;;;;;;;;;26.50;99.90;;;;;;5044107;28;19921;-68
2023/07/10 07:47:27;;;;;;;;;;;26.60;99.90;;;;;;5043752;28;19954;-68
2023/07/10 07:49:53;;;;;;;;;;;26.70;99.90;;;;;;5043633;28;19960;-69
2023/07/10 07:52:20;;;;;;;;;;;26.70;99.90;;;;;;5043778;28;20000;-67
2023/07/10 07:54:48;;;;;;;;;;;26.70;99.90;;;;;;5043894;28;19944;-68
2023/07/10 07:57:16;;;;;;;;;;;26.80;99.90;;;;;;5043945;28;19921;-69
2023/07/10 07:59:44;;;;;;;;;;;26.90;99.90;;;;;;5042114;28;19929;-69
2023/07/10 08:02:10;;;;;;;;;;;26.90;99.90;;;;;;5043258;28;19989;-67
2023/07/10 08:04:37;;;;;;;;;;;26.90;99.90;;;;;;5043861;28;19957;-68
2023/07/10 08:07:04;;;;;;;;;;;26.90;99.90;;;;;;5043795;28;19959;-69
2023/07/10 08:09:30;;;;;;;;;;;26.90;99.90;;;;;;5040921;28;20251;-69
2023/07/10 08:11:57;;;;;;;;;;;26.80;99.90;;;;;;5042637;28;19921;-69
2023/07/10 08:14:25;;;;;;;;;;;26.80;99.90;;;;;;5043791;28;20227;-69
2023/07/10 08:16:52;;;;;;;;;;;26.80;99.90;;;;;;5043389;28;19959;-69
2023/07/10 08:19:19;;;;;;;;;;;26.80;99.90;;;;;;5043341;28;20192;-68
2023/07/10 08:21:47;;;;;;;;;;;26.80;99.90;;;;;;5041955;28;19952;-69
2023/07/10 08:24:14;;;;;;;;;;;26.80;99.90;;;;;;5043360;28;19921;-68
2023/07/10 08:26:40;;;;;;;;;;;26.90;99.90;;;;;;5043448;28;19980;-68
2023/07/10 08:29:23;;;;;;;;;;;27.00;99.90;;;;;;5043418;28;19989;-70
2023/07/10 08:31:52;;;;;;;;;;;27.00;99.90;;;;;;5042462;28;19925;-69
2023/07/10 08:34:18;;;;;;;;;;;27.00;99.90;;;;;;5043344;28;19928;-69
2023/07/10 08:36:45;;;;;;;;;;;27.00;99.90;;;;;;5043497;28;19964;-69
2023/07/10 08:39:12;;;;;;;;;;;27.10;99.90;;;;;;5043161;28;19948;-69
2023/07/10 08:41:39;;;;;;;;;;;27.10;99.90;;;;;;5045760;28;19921;-69
2023/07/10 08:44:05;;;;;;;;;;;27.20;99.90;;;;;;5047654;28;19921;-69
2023/07/10 08:46:32;;;;;;;;;;;27.30;99.90;;;;;;5045909;28;20263;-69
2023/07/10 08:49:02;;;;;;;;;;;27.30;99.90;;;;;;5047089;28;20263;-69
2023/07/10 08:51:33;;;;;;;;;;;27.40;99.90;;;;;;5046195;28;20195;-69
2023/07/10 08:54:02;;;;;;;;;;;27.50;99.90;;;;;;5042791;28;19928;-68
2023/07/10 08:56:29;;;;;;;;;;;27.60;99.90;;;;;;5046952;28;20147;-69
2023/07/10 08:59:00;;;;;;;;;;;27.70;99.90;;;;;;5046764;28;19921;-68
2023/07/10 09:01:30;;;;;;;;;;;27.70;99.90;;;;;;5037157;28;19921;-68
2023/07/10 09:03:59;;;;;;;;;;;27.70;99.90;;;;;;5027084;28;20000;-69
2023/07/10 09:06:32;;;;;;;;;;;27.80;99.90;;;;;;5026712;28;20256;-71
2023/07/10 09:08:59;;;;;;;;;;;27.80;99.90;;;;;;5027211;28;19921;-68
2023/07/10 09:11:28;;;;;;;;;;;27.90;99.90;;;;;;5023048;28;19927;-69
2023/07/10 09:13:57;;;;;;;;;;;28.10;99.90;;;;;;5026610;28;19925;-68
2023/07/10 09:16:24;;;;;;;;;;;28.20;99.90;;;;;;5026770;28;19957;-69
2023/07/10 09:18:53;;;;;;;;;;;28.30;99.90;;;;;;5026616;28;20153;-68
2023/07/10 09:21:21;;;;;;;;;;;28.40;99.90;;;;;;5044927;28;19952;-69
2023/07/10 09:23:49;;;;;;;;;;;28.60;99.90;;;;;;5042789;28;20005;-68
2023/07/10 09:26:17;;;;;;;;;;;28.60;99.90;;;;;;5046133;28;19980;-69
2023/07/10 09:28:45;;;;;;;;;;;28.60;99.90;;;;;;5024880;28;20209;-69
2023/07/10 09:31:19;;;;;;;;;;;28.60;99.90;;;;;;5028686;28;19976;-68
2023/07/10 09:33:53;;;;;;;;;;;28.50;99.90;;;;;;5046477;28;19921;-69
2023/07/10 09:36:22;;;;;;;;;;;28.40;99.90;;;;;;5045908;28;19955;-69
2023/07/10 09:38:52;;;;;;;;;;;28.40;99.90;;;;;;5045148;28;19984;-69
2023/07/10 09:41:21;;;;;;;;;;;28.50;99.90;;;;;;5045061;28;20193;-68
2023/07/10 09:43:53;;;;;;;;;;;28.50;99.90;;;;;;5046307;28;19988;-69
2023/07/10 09:46:22;;;;;;;;;;;28.60;99.90;;;;;;5046149;28;20004;-69
2023/07/10 09:48:51;;;;;;;;;;;28.70;99.90;;;;;;5045878;28;20238;-69
2023/07/10 09:51:18;;;;;;;;;;;28.80;99.90;;;;;;5045006;28;20017;-69
2023/07/10 09:53:49;;;;;;;;;;;28.80;99.90;;;;;;5044899;28;19956;-69
2023/07/10 09:56:27;;;;;;;;;;;28.80;99.90;;;;;;5046086;28;19952;-68
2023/07/10 09:58:55;;;;;;;;;;;28.80;99.90;;;;;;5026000;28;19988;-69
2023/07/10 10:01:24;;;;;;;;;;;28.80;99.90;;;;;;5031608;28;19921;-69
2023/07/10 10:03:52;;;;;;;;;;;28.90;99.90;;;;;;5045745;28;20159;-69
2023/07/10 10:06:20;;;;;;;;;;;29.10;99.90;;;;;;5045423;28;20211;-69
2023/07/10 10:08:47;;;;;;;;;;;29.20;99.90;;;;;;5045860;28;19929;-69
2023/07/10 10:11:14;;;;;;;;;;;29.20;99.90;;;;;;5044599;28;19988;-69
2023/07/10 10:13:44;;;;;;;;;;;29.40;99.90;;;;;;5045825;28;19975;-68
2023/07/10 10:16:17;;;;;;;;;;;29.40;99.90;;;;;;5045013;28;19921;-69
2023/07/10 10:18:45;;;;;;;;;;;29.40;99.90;;;;;;5045534;28;19956;-69
2023/07/10 10:21:13;;;;;;;;;;;29.50;99.90;;;;;;5044734;28;20176;-69
2023/07/10 10:23:41;;;;;;;;;;;29.40;99.90;;;;;;5045217;28;19968;-68
2023/07/10 10:26:12;;;;;;;;;;;29.50;99.90;;;;;;5045041;28;20256;-69
2023/07/10 10:28:44;;;;;;;;;;;29.60;99.90;;;;;;5042362;28;19992;-69
2023/07/10 10:31:15;;;;;;;;;;;29.70;99.90;;;;;;5044441;28;20028;-69
2023/07/10 10:33:45;;;;;;;;;;;29.80;99.90;;;;;;5045412;28;19921;-69
2023/07/10 10:36:18;;;;;;;;;;;29.80;99.90;;;;;;5044314;28;19963;-69
2023/07/10 10:38:49;;;;;;;;;;;29.80;99.90;;;;;;5044119;28;19988;-69
2023/07/10 10:41:22;;;;;;;;;;;29.90;99.90;;;;;;5043723;28;20149;-69
2023/07/10 10:43:56;;;;;;;;;;;29.90;99.90;;;;;;5045172;28;19960;-69
2023/07/10 10:46:29;;;;;;;;;;;29.90;99.90;;;;;;5044959;28;19988;-71
2023/07/10 10:49:02;;;;;;;;;;;29.90;99.90;;;;;;5040801;28;20163;-69
2023/07/10 10:51:30;;;;;;;;;;;29.80;99.90;;;;;;5043898;28;19921;-69
2023/07/10 10:54:00;;;;;;;;;;;29.90;99.90;;;;;;5044460;28;19980;-69
2023/07/10 10:56:29;;;;;;;;;;;29.80;99.90;;;;;;5042038;28;19928;-69
2023/07/10 10:58:59;;;;;;;;;;;29.90;99.90;;;;;;5025011;28;19953;-70
2023/07/10 11:01:32;;;;;;;;;;;29.90;99.90;;;;;;5033840;28;19994;-70
2023/07/10 11:04:02;;;;;;;;;;;29.90;99.90;;;;;;5044947;28;19927;-70
2023/07/10 11:06:44;;;;;;;;;;;29.90;99.90;;;;;;5044729;28;20193;-70
2023/07/10 11:09:12;;;;;;;;;;;29.80;99.90;;;;;;5044218;28;19959;-70
2023/07/10 11:11:40;;;;;;;;;;;29.80;99.90;;;;;;5042369;28;19988;-70
2023/07/10 11:14:07;;;;;;;;;;;29.80;99.90;;;;;;5040503;28;19972;-72
2023/07/10 11:16:35;;;;;;;;;;;30.00;99.90;;;;;;5023944;28;19921;-70
2023/07/10 11:19:03;;;;;;;;;;;30.10;99.90;;;;;;5024226;28;19922;-70
2023/07/10 11:21:31;;;;;;;;;;;29.90;99.90;;;;;;5019700;28;19922;-70
2023/07/10 11:24:00;;;;;;;;;;;29.80;99.90;;;;;;5033556;28;20347;-69
2023/07/10 11:26:32;;;;;;;;;;;29.80;99.90;;;;;;5036514;28;19928;-69
2023/07/10 11:29:00;;;;;;;;;;;29.90;99.90;;;;;;5038919;28;20172;-72
2023/07/10 11:31:36;;;;;;;;;;;30.10;99.90;;;;;;5039354;28;20285;-71
2023/07/10 11:34:21;;;;;;;;;;;30.20;99.90;;;;;;5023679;28;20116;-71
2023/07/10 11:36:51;;;;;;;;;;;30.10;99.90;;;;;;5027684;28;19921;-71
2023/07/10 11:39:19;;;;;;;;;;;30.10;99.90;;;;;;5042942;28;19921;-69
2023/07/10 11:42:04;;;;;;;;;;;30.20;99.90;;;;;;5025675;28;19988;-71
2023/07/10 11:44:32;;;;;;;;;;;30.20;99.90;;;;;;5024100;28;20000;-70
2023/07/10 11:47:00;;;;;;;;;;;30.20;99.90;;;;;;5031708;28;20121;-71
2023/07/10 11:49:28;;;;;;;;;;;30.10;99.90;;;;;;5043948;28;19928;-71
2023/07/10 11:52:24;;;;;;;;;;;30.20;99.90;;;;;;5040449;28;19921;-71
2023/07/10 11:55:01;;;;;;;;;;;30.30;99.90;;;;;;5023857;28;19964;-70
2023/07/10 11:57:29;;;;;;;;;;;30.40;99.90;;;;;;5024124;28;19984;-71
2023/07/10 11:59:57;;;;;;;;;;;30.60;99.90;;;;;;5037979;28;19984;-70
2023/07/10 12:02:32;;;;;;;;;;;30.70;99.90;;;;;;5043321;28;20167;-71
2023/07/10 12:04:59;;;;;;;;;;;30.90;99.90;;;;;;5043527;28;19936;-71
2023/07/10 12:07:28;;;;;;;;;;;31.10;99.90;;;;;;5040788;28;19952;-71
2023/07/10 12:09:57;;;;;;;;;;;31.10;99.90;;;;;;5042830;28;19952;-71
2023/07/10 12:12:24;;;;;;;;;;;30.90;99.90;;;;;;5043488;28;19921;-70
2023/07/10 12:14:50;;;;;;;;;;;30.80;99.90;;;;;;5043009;28;20154;-71
2023/07/10 12:17:18;;;;;;;;;;;30.90;99.90;;;;;;5043339;28;19995;-71
2023/07/10 12:19:45;;;;;;;;;;;30.90;99.90;;;;;;5043445;28;19984;-70
2023/07/10 12:22:18;;;;;;;;;;;31.10;99.90;;;;;;5042313;28;20248;-71
2023/07/10 12:24:48;;;;;;;;;;;31.20;99.90;;;;;;5043129;28;19921;-71
2023/07/10 12:27:15;;;;;;;;;;;31.30;99.90;;;;;;5043096;28;19967;-71
2023/07/10 12:29:47;;;;;;;;;;;31.30;99.90;;;;;;5043105;28;19984;-69
2023/07/10 12:32:14;;;;;;;;;;;31.30;99.90;;;;;;5042738;28;19925;-71
2023/07/10 12:34:41;;;;;;;;;;;31.40;99.90;;;;;;5042939;28;20217;-71
2023/07/10 12:37:10;;;;;;;;;;;31.50;99.90;;;;;;5031194;28;19921;-71
2023/07/10 12:39:36;;;;;;;;;;;31.60;99.90;;;;;;5023610;28;19985;-71
2023/07/10 12:42:23;;;;;;;;;;;31.70;99.90;;;;;;5022517;28;19929;-71
2023/07/10 12:44:49;;;;;;;;;;;31.80;99.90;;;;;;5033416;28;19984;-72
2023/07/10 12:47:16;;;;;;;;;;;31.90;99.90;;;;;;5042738;28;20177;-71
2023/07/10 12:49:49;;;;;;;;;;;32.10;99.90;;;;;;5043283;28;19984;-71
2023/07/10 12:52:18;;;;;;;;;;;32.00;99.70;;;;;;5039884;28;19988;-71
2023/07/10 12:54:46;;;;;;;;;;;31.90;98.50;;;;;;5042869;28;19984;-72
2023/07/10 12:57:15;;;;;;;;;;;31.90;97.80;;;;;;5043222;28;20116;-71
2023/07/10 12:59:42;;;;;;;;;;;31.90;97.90;;;;;;5042874;28;20208;-71
2023/07/10 13:02:15;;;;;;;;;;;32.10;98.30;;;;;;5042268;28;20170;-71
2023/07/10 13:04:46;;;;;;;;;;;32.10;98.00;;;;;;5032982;28;19928;-71
2023/07/10 13:07:15;;;;;;;;;;;32.20;98.00;;;;;;5045195;28;19928;-71
2023/07/10 13:09:42;;;;;;;;;;;32.30;98.40;;;;;;5053743;28;20109;-71
2023/07/10 13:12:19;;;;;;;;;;;32.40;97.50;;;;;;5050840;28;20235;-71
2023/07/10 13:14:47;;;;;;;;;;;32.40;97.70;;;;;;5042487;28;19959;-71
2023/07/10 13:17:13;;;;;;;;;;;32.40;97.50;;;;;;5042913;28;19928;-71
2023/07/10 13:19:40;;;;;;;;;;;32.60;97.20;;;;;;5042835;28;19921;-71
2023/07/10 13:22:10;;;;;;;;;;;32.60;96.60;;;;;;5042051;28;19988;-71
2023/07/10 13:24:37;;;;;;;;;;;32.40;96.50;;;;;;5042610;28;19921;-72
2023/07/10 13:27:03;;;;;;;;;;;32.30;96.00;;;;;;5043008;28;19940;-70
2023/07/10 13:29:32;;;;;;;;;;;32.10;96.10;;;;;;5043208;28;20213;-71
2023/07/10 13:32:00;;;;;;;;;;;32.10;96.50;;;;;;5045246;28;19928;-72
2023/07/10 13:34:27;;;;;;;;;;;32.30;95.20;;;;;;5046072;28;20142;-71
2023/07/10 13:36:54;;;;;;;;;;;32.20;95.40;;;;;;5046349;28;19920;-71
2023/07/10 13:39:20;;;;;;;;;;;32.40;95.60;;;;;;5046498;28;19921;-71
2023/07/10 13:41:47;;;;;;;;;;;32.60;94.70;;;;;;5045725;28;19928;-71
2023/07/10 13:44:14;;;;;;;;;;;32.60;94.90;;;;;;5046359;28;20151;-71
2023/07/10 13:46:41;;;;;;;;;;;32.60;94.90;;;;;;5046369;28;19937;-71
2023/07/10 13:49:12;;;;;;;;;;;32.70;92.60;;;;;;5046468;28;20251;-72
2023/07/10 13:51:39;;;;;;;;;;;32.80;93.50;;;;;;5045664;28;19983;-71
2023/07/10 13:54:06;;;;;;;;;;;32.80;93.30;;;;;;5046030;28;19988;-72
2023/07/10 13:56:33;;;;;;;;;;;32.70;91.70;;;;;;5046081;28;20227;-71
2023/07/10 13:59:02;;;;;;;;;;;32.60;91.50;;;;;;5046272;28;19956;-71
2023/07/10 14:01:28;;;;;;;;;;;32.60;91.00;;;;;;5045123;28;20216;-71
2023/07/10 14:03:55;;;;;;;;;;;32.80;90.00;;;;;;5046071;28;19921;-72
2023/07/10 14:06:33;;;;;;;;;;;33.00;90.40;;;;;;5046085;28;19921;-71
2023/07/10 14:09:01;;;;;;;;;;;33.10;90.80;;;;;;5045941;28;19992;-73
2023/07/10 14:11:28;;;;;;;;;;;33.20;90.10;;;;;;5045351;28;19921;-71
2023/07/10 14:13:55;;;;;;;;;;;33.30;90.30;;;;;;5045634;28;20263;-72
2023/07/10 14:16:23;;;;;;;;;;;33.30;88.60;;;;;;5046102;28;19953;-71
2023/07/10 14:18:50;;;;;;;;;;;33.30;89.00;;;;;;5046070;28;20003;-71
2023/07/10 14:21:17;;;;;;;;;;;33.40;89.80;;;;;;5045240;28;20371;-72